createdAt,value
2017-07-31T00:00:11.531Z,17.60
2017-07-31T00:02:39.123Z,17.70
2017-07-31T00:05:06.672Z,17.70
2017-07-31T00:07:34.219Z,17.70
2017-07-31T00:10:01.812Z,17.70
2017-07-31T00:12:29.404Z,17.60
2017-07-31T00:14:57.749Z,17.40
2017-07-31T00:17:25.298Z,17.40
2017-07-31T00:19:52.893Z,17.30
2017-07-31T00:22:20.446Z,17.20
2017-07-31T00:24:47.999Z,17.20
2017-07-31T00:27:15.584Z,17.10
2017-07-31T00:29:43.140Z,17.10
2017-07-31T00:32:10.931Z,17.30
2017-07-31T00:34:38.524Z,17.30
2017-07-31T00:37:06.082Z,17.30
2017-07-31T00:39:33.676Z,17.10
2017-07-31T00:42:01.239Z,17.00
2017-07-31T00:44:29.565Z,17.10
2017-07-31T00:46:57.144Z,17.00
2017-07-31T00:49:24.738Z,17.00
2017-07-31T00:51:53.065Z,16.80
2017-07-31T00:54:20.658Z,16.80
2017-07-31T00:56:48.249Z,16.90
2017-07-31T00:59:15.799Z,16.90
2017-07-31T01:01:43.390Z,16.90
2017-07-31T01:04:10.984Z,16.90
2017-07-31T01:06:38.532Z,16.80
2017-07-31T01:09:06.096Z,16.70
2017-07-31T01:11:33.672Z,16.50
2017-07-31T01:14:01.285Z,16.50
2017-07-31T01:16:28.842Z,16.40
2017-07-31T01:18:56.406Z,16.30
2017-07-31T01:21:23.984Z,16.30
2017-07-31T01:23:51.549Z,16.20
2017-07-31T01:26:19.139Z,16.10
2017-07-31T01:28:46.701Z,16.10
2017-07-31T01:31:15.286Z,16.10
2017-07-31T01:33:42.877Z,16.20
2017-07-31T01:36:10.426Z,16.20
2017-07-31T01:38:38.018Z,16.50
2017-07-31T01:41:05.567Z,16.30
2017-07-31T01:43:33.143Z,16.20
2017-07-31T01:46:00.721Z,16.10
2017-07-31T01:48:28.299Z,16.00
2017-07-31T01:50:55.885Z,16.10
2017-07-31T01:53:24.211Z,16.00
2017-07-31T01:55:51.783Z,15.90
2017-07-31T01:58:19.376Z,16.00
2017-07-31T02:00:47.702Z,15.90
2017-07-31T02:03:15.281Z,15.90
2017-07-31T02:05:42.849Z,15.90
2017-07-31T02:08:10.407Z,15.90
2017-07-31T02:10:37.984Z,15.90
2017-07-31T02:13:05.578Z,15.90
2017-07-31T02:15:33.169Z,16.00
2017-07-31T02:18:00.719Z,15.90
2017-07-31T02:20:28.266Z,15.80
2017-07-31T02:22:55.860Z,15.80
2017-07-31T02:25:23.422Z,15.90
2017-07-31T02:27:51.000Z,15.80
2017-07-31T02:30:18.615Z,15.80
2017-07-31T02:32:46.234Z,15.70
2017-07-31T02:35:14.618Z,15.30
2017-07-31T02:37:42.166Z,15.30
2017-07-31T02:40:09.774Z,15.30
2017-07-31T02:42:37.336Z,15.30
2017-07-31T02:45:04.871Z,15.30
2017-07-31T02:47:32.478Z,15.40
2017-07-31T02:50:00.024Z,15.30
2017-07-31T02:52:27.573Z,15.20
2017-07-31T02:54:55.166Z,15.20
2017-07-31T02:57:22.714Z,15.10
2017-07-31T02:59:50.263Z,15.00
2017-07-31T03:02:17.855Z,15.00
2017-07-31T03:04:45.432Z,15.10
2017-07-31T03:07:13.760Z,15.10
2017-07-31T03:09:41.353Z,15.10
2017-07-31T03:12:08.900Z,15.20
2017-07-31T03:14:36.492Z,15.20
2017-07-31T03:17:04.825Z,15.20
2017-07-31T03:19:32.383Z,15.20
2017-07-31T03:21:59.962Z,15.00
2017-07-31T03:24:27.585Z,15.00
2017-07-31T03:26:55.132Z,14.90
2017-07-31T03:29:22.680Z,15.00
2017-07-31T03:31:50.272Z,15.00
2017-07-31T03:34:17.821Z,14.90
2017-07-31T03:36:45.368Z,15.00
2017-07-31T03:39:12.963Z,15.00
2017-07-31T03:41:40.524Z,15.00
2017-07-31T03:44:08.087Z,15.00
2017-07-31T03:46:35.669Z,15.10
2017-07-31T03:49:03.244Z,15.20
2017-07-31T03:51:31.049Z,15.10
2017-07-31T03:53:58.686Z,15.10
2017-07-31T03:56:27.011Z,14.80
2017-07-31T03:58:54.589Z,14.80
2017-07-31T04:01:22.168Z,14.90
2017-07-31T04:03:49.730Z,14.90
2017-07-31T04:06:17.322Z,14.90
2017-07-31T04:08:44.871Z,15.00
2017-07-31T04:11:12.433Z,15.20
2017-07-31T04:13:40.012Z,15.30
2017-07-31T04:16:07.604Z,15.40
2017-07-31T04:18:35.166Z,15.40
2017-07-31T04:21:02.715Z,15.40
2017-07-31T04:23:30.306Z,15.70
2017-07-31T04:25:57.849Z,15.60
2017-07-31T04:28:25.432Z,15.60
2017-07-31T04:30:53.762Z,16.00
2017-07-31T04:33:21.339Z,16.00
2017-07-31T04:35:48.931Z,16.30
2017-07-31T04:38:17.259Z,16.70
2017-07-31T04:40:44.845Z,16.70
2017-07-31T04:43:12.399Z,16.80
2017-07-31T04:45:39.942Z,16.90
2017-07-31T04:48:07.525Z,17.10
2017-07-31T04:50:35.074Z,17.20
2017-07-31T04:53:02.651Z,17.40
2017-07-31T04:55:30.214Z,17.50
2017-07-31T04:57:57.838Z,17.60
2017-07-31T05:00:25.400Z,17.60
2017-07-31T05:02:52.963Z,17.50
2017-07-31T05:05:20.554Z,17.60
2017-07-31T05:07:48.103Z,17.60
2017-07-31T05:10:15.700Z,17.60
2017-07-31T05:12:44.024Z,17.50
2017-07-31T05:15:11.616Z,17.50
2017-07-31T05:17:39.168Z,17.50
2017-07-31T05:20:06.729Z,17.70
2017-07-31T05:22:34.306Z,17.70
2017-07-31T05:25:02.632Z,17.90
2017-07-31T05:27:30.227Z,17.80
2017-07-31T05:29:57.805Z,18.00
2017-07-31T05:32:26.147Z,18.10
2017-07-31T05:34:53.735Z,18.10
2017-07-31T05:37:21.287Z,18.10
2017-07-31T05:39:48.850Z,18.00
2017-07-31T05:42:16.448Z,18.10
2017-07-31T05:44:44.006Z,18.10
2017-07-31T05:47:11.583Z,18.00
2017-07-31T05:49:39.147Z,18.00
2017-07-31T05:52:06.725Z,18.10
2017-07-31T05:54:34.266Z,18.10
2017-07-31T05:57:01.864Z,18.10
2017-07-31T05:59:29.413Z,18.10
2017-07-31T06:01:57.830Z,18.10
2017-07-31T06:06:59.421Z,18.40
2017-07-31T06:09:27.015Z,18.50
2017-07-31T06:11:54.562Z,18.60
2017-07-31T06:14:22.127Z,18.60
2017-07-31T06:16:49.718Z,18.70
2017-07-31T06:19:17.281Z,18.70
2017-07-31T06:21:44.875Z,18.70
2017-07-31T06:24:12.438Z,18.70
2017-07-31T06:26:40.029Z,18.80
2017-07-31T06:29:07.591Z,18.60
2017-07-31T06:31:35.141Z,18.50
2017-07-31T06:34:02.735Z,18.40
2017-07-31T06:36:30.287Z,18.40
2017-07-31T06:38:58.149Z,18.50
2017-07-31T06:41:26.473Z,18.60
2017-07-31T06:43:54.066Z,18.60
2017-07-31T06:46:21.615Z,18.60
2017-07-31T06:48:49.208Z,18.70
2017-07-31T06:51:16.756Z,18.80
2017-07-31T06:53:44.334Z,18.90
2017-07-31T06:56:12.293Z,18.90
2017-07-31T06:58:39.865Z,19.00
2017-07-31T07:01:07.444Z,19.10
2017-07-31T07:03:35.035Z,19.60
2017-07-31T07:06:02.584Z,19.70
2017-07-31T07:08:31.138Z,19.60
2017-07-31T07:10:58.699Z,19.70
2017-07-31T07:13:26.249Z,19.60
2017-07-31T07:15:53.826Z,19.60
2017-07-31T07:18:21.463Z,19.50
2017-07-31T07:20:49.057Z,19.40
2017-07-31T07:23:16.935Z,19.40
2017-07-31T07:25:44.543Z,19.60
2017-07-31T07:28:12.092Z,19.60
2017-07-31T07:30:39.707Z,19.50
2017-07-31T07:33:07.312Z,19.50
2017-07-31T07:35:35.066Z,19.60
2017-07-31T07:38:02.611Z,20.00
2017-07-31T07:40:30.204Z,20.10
2017-07-31T07:42:57.782Z,20.20
2017-07-31T07:45:25.335Z,20.20
2017-07-31T07:47:52.923Z,20.30
2017-07-31T07:50:20.470Z,20.00
2017-07-31T07:52:48.020Z,20.20
2017-07-31T07:55:15.611Z,20.40
2017-07-31T07:57:43.939Z,20.90
2017-07-31T08:00:11.532Z,20.80
2017-07-31T08:02:39.080Z,21.10
2017-07-31T08:05:06.672Z,21.20
2017-07-31T08:07:35.001Z,21.20
2017-07-31T08:10:02.550Z,21.20
2017-07-31T08:12:30.141Z,21.30
2017-07-31T08:14:57.691Z,21.50
2017-07-31T08:17:25.253Z,21.60
2017-07-31T08:19:52.847Z,21.40
2017-07-31T08:22:21.359Z,21.60
2017-07-31T08:24:48.947Z,21.70
2017-07-31T08:27:16.494Z,22.00
2017-07-31T08:29:44.075Z,22.10
2017-07-31T08:32:11.621Z,22.00
2017-07-31T08:34:39.214Z,21.90
2017-07-31T08:37:06.784Z,21.70
2017-07-31T08:39:34.626Z,21.60
2017-07-31T08:42:02.986Z,21.80
2017-07-31T08:44:30.537Z,21.80
2017-07-31T08:46:58.147Z,21.70
2017-07-31T08:49:25.717Z,21.80
2017-07-31T08:51:53.326Z,22.00
2017-07-31T08:54:20.924Z,22.20
2017-07-31T08:56:48.488Z,22.40
2017-07-31T08:59:16.814Z,22.60
2017-07-31T09:01:44.397Z,22.60
2017-07-31T09:04:11.941Z,22.40
2017-07-31T09:06:39.536Z,22.50
2017-07-31T09:09:07.097Z,22.70
2017-07-31T09:11:34.689Z,22.80
2017-07-31T09:14:02.237Z,22.70
2017-07-31T09:16:30.595Z,22.60
2017-07-31T09:18:58.180Z,22.60
2017-07-31T09:21:26.502Z,22.60
2017-07-31T09:23:54.093Z,22.60
2017-07-31T09:26:21.673Z,22.80
2017-07-31T09:28:50.834Z,23.00
2017-07-31T09:31:18.418Z,23.00
2017-07-31T09:33:46.776Z,23.10
2017-07-31T09:36:14.368Z,23.10
2017-07-31T09:38:42.729Z,23.40
2017-07-31T09:41:10.290Z,23.40
2017-07-31T09:43:38.423Z,23.30
2017-07-31T09:46:07.801Z,23.30
2017-07-31T09:48:35.379Z,23.30
2017-07-31T09:51:02.966Z,23.40
2017-07-31T09:53:30.514Z,23.60
2017-07-31T09:55:58.112Z,23.60
2017-07-31T09:58:26.457Z,23.60
2017-07-31T10:00:54.003Z,23.60
2017-07-31T10:03:21.581Z,23.50
2017-07-31T10:05:49.138Z,23.60
2017-07-31T10:08:16.738Z,23.70
2017-07-31T10:10:44.298Z,23.40
2017-07-31T10:13:11.861Z,23.60
2017-07-31T10:15:40.219Z,24.10
2017-07-31T10:18:07.781Z,24.10
2017-07-31T10:20:35.330Z,24.30
2017-07-31T10:23:02.922Z,24.30
2017-07-31T10:25:31.251Z,24.20
2017-07-31T10:27:58.847Z,24.10
2017-07-31T10:30:26.407Z,24.30
2017-07-31T10:32:53.967Z,24.20
2017-07-31T10:35:21.545Z,24.00
2017-07-31T10:37:49.110Z,23.60
2017-07-31T10:40:16.673Z,23.40
2017-07-31T10:42:44.265Z,23.70
2017-07-31T10:45:11.872Z,23.40
2017-07-31T10:47:40.186Z,23.30
2017-07-31T10:50:07.751Z,23.30
2017-07-31T10:52:35.341Z,23.40
2017-07-31T10:55:02.889Z,23.20
2017-07-31T10:57:30.482Z,23.30
2017-07-31T10:59:58.030Z,23.40
2017-07-31T11:02:25.640Z,23.40
2017-07-31T11:04:53.201Z,23.70
2017-07-31T11:07:20.753Z,24.00
2017-07-31T11:09:49.069Z,24.10
2017-07-31T11:12:16.626Z,24.20
2017-07-31T11:14:44.222Z,24.20
2017-07-31T11:17:11.825Z,24.40
2017-07-31T11:19:39.387Z,24.20
2017-07-31T11:22:06.979Z,24.30
2017-07-31T11:24:34.528Z,24.50
2017-07-31T11:27:02.078Z,24.40
2017-07-31T11:29:29.668Z,24.40
2017-07-31T11:31:57.216Z,24.60
2017-07-31T11:34:24.771Z,24.70
2017-07-31T11:36:52.343Z,24.50
2017-07-31T11:39:19.893Z,24.50
2017-07-31T11:41:47.484Z,24.80
2017-07-31T11:44:15.810Z,24.90
2017-07-31T11:46:43.359Z,24.90
2017-07-31T11:49:10.953Z,24.80
2017-07-31T11:51:38.517Z,25.00
2017-07-31T11:54:06.079Z,25.30
2017-07-31T11:56:33.670Z,25.30
2017-07-31T11:59:02.029Z,25.20
2017-07-31T12:01:29.587Z,25.20
2017-07-31T12:03:57.146Z,25.00
2017-07-31T12:06:24.763Z,24.80
2017-07-31T12:08:52.930Z,24.80
2017-07-31T12:11:20.488Z,25.00
2017-07-31T12:13:48.086Z,25.20
2017-07-31T12:16:15.644Z,25.30
2017-07-31T12:18:44.203Z,25.30
2017-07-31T12:21:12.080Z,25.30
2017-07-31T12:23:39.638Z,25.20
2017-07-31T12:26:07.232Z,25.40
2017-07-31T12:28:34.808Z,25.50
2017-07-31T12:31:02.359Z,25.30
2017-07-31T12:33:30.212Z,25.50
2017-07-31T12:35:57.762Z,25.30
2017-07-31T12:38:25.351Z,25.30
2017-07-31T12:40:53.725Z,25.50
2017-07-31T12:43:22.053Z,25.50
2017-07-31T12:45:49.662Z,25.40
2017-07-31T12:48:17.993Z,25.40
2017-07-31T12:50:45.589Z,25.40
2017-07-31T12:53:13.146Z,25.20
2017-07-31T12:55:40.698Z,25.40
2017-07-31T12:58:08.286Z,25.70
2017-07-31T13:00:35.835Z,25.90
2017-07-31T13:03:03.384Z,26.00
2017-07-31T13:05:30.976Z,26.00
2017-07-31T13:07:59.288Z,25.90
2017-07-31T13:10:26.867Z,25.90
2017-07-31T13:12:54.430Z,26.00
2017-07-31T13:15:22.024Z,26.00
2017-07-31T13:17:50.352Z,26.00
2017-07-31T13:20:18.650Z,26.00
2017-07-31T13:22:46.226Z,25.90
2017-07-31T13:25:13.791Z,26.00
2017-07-31T13:27:41.382Z,26.10
2017-07-31T13:30:08.931Z,26.00
2017-07-31T13:32:37.290Z,26.00
2017-07-31T13:35:04.847Z,25.90
2017-07-31T13:37:32.401Z,25.90
2017-07-31T13:39:59.993Z,25.80
2017-07-31T13:42:28.319Z,25.60
2017-07-31T13:44:56.844Z,25.60
2017-07-31T13:47:25.201Z,25.80
2017-07-31T13:49:52.767Z,25.80
2017-07-31T13:52:20.357Z,25.70
2017-07-31T13:54:47.920Z,25.80
2017-07-31T13:57:15.483Z,26.00
2017-07-31T13:59:43.074Z,26.00
2017-07-31T14:02:10.624Z,26.10
2017-07-31T14:04:38.186Z,26.00
2017-07-31T14:07:06.413Z,26.10
2017-07-31T14:09:34.736Z,26.10
2017-07-31T14:12:02.315Z,26.00
2017-07-31T14:14:29.908Z,26.10
2017-07-31T14:16:58.235Z,26.10
2017-07-31T14:19:25.835Z,26.10
2017-07-31T14:21:54.172Z,26.00
2017-07-31T14:24:21.757Z,26.00
2017-07-31T14:26:49.316Z,26.00
2017-07-31T14:29:16.859Z,25.80
2017-07-31T14:31:44.446Z,25.70
2017-07-31T14:34:11.999Z,25.80
2017-07-31T14:36:39.584Z,25.60
2017-07-31T14:39:07.904Z,25.80
2017-07-31T14:41:35.504Z,25.80
2017-07-31T14:44:03.061Z,26.00
2017-07-31T14:46:30.607Z,26.00
2017-07-31T14:48:58.186Z,26.10
2017-07-31T14:51:25.748Z,26.10
2017-07-31T14:53:53.342Z,26.00
2017-07-31T14:56:20.904Z,26.10
2017-07-31T14:58:48.497Z,26.20
2017-07-31T15:01:16.046Z,26.20
2017-07-31T15:03:43.610Z,26.10
2017-07-31T15:06:11.200Z,26.00
2017-07-31T15:08:38.752Z,25.90
2017-07-31T15:11:06.346Z,25.90
2017-07-31T15:13:34.670Z,26.10
2017-07-31T15:16:02.216Z,26.10
2017-07-31T15:18:29.809Z,26.10
2017-07-31T15:20:57.364Z,26.20
2017-07-31T15:23:24.951Z,26.20
2017-07-31T15:25:52.513Z,26.00
2017-07-31T15:28:20.076Z,26.10
2017-07-31T15:30:48.494Z,26.10
2017-07-31T15:33:16.041Z,26.10
2017-07-31T15:35:43.633Z,26.00
2017-07-31T15:38:11.226Z,26.20
2017-07-31T15:40:38.789Z,26.00
2017-07-31T15:43:06.381Z,26.00
2017-07-31T15:45:34.770Z,25.90
2017-07-31T15:48:02.377Z,25.80
2017-07-31T15:50:29.969Z,25.90
2017-07-31T15:52:58.282Z,26.00
2017-07-31T15:55:25.831Z,26.00
2017-07-31T15:57:53.935Z,26.10
2017-07-31T16:00:21.481Z,26.10
2017-07-31T16:02:49.077Z,25.90
2017-07-31T16:05:16.641Z,25.50
2017-07-31T16:07:44.229Z,25.30
2017-07-31T16:10:11.778Z,25.20
2017-07-31T16:12:40.138Z,25.10
2017-07-31T16:15:07.697Z,25.10
2017-07-31T16:17:35.291Z,25.20
2017-07-31T16:20:02.853Z,25.20
2017-07-31T16:22:30.445Z,25.20
2017-07-31T16:24:58.009Z,25.00
2017-07-31T16:27:25.617Z,25.20
2017-07-31T16:29:53.182Z,25.20
2017-07-31T16:32:20.749Z,25.10
2017-07-31T16:34:48.334Z,25.30
2017-07-31T16:37:27.952Z,25.20
2017-07-31T16:39:55.537Z,25.10
2017-07-31T16:42:35.056Z,25.00
2017-07-31T16:45:02.651Z,25.10
2017-07-31T16:47:42.079Z,25.00
2017-07-31T16:50:24.553Z,24.70
2017-07-31T16:52:52.102Z,25.00
2017-07-31T16:55:20.489Z,25.40
2017-07-31T16:57:48.067Z,25.40
2017-07-31T17:00:15.630Z,25.40
2017-07-31T17:02:43.223Z,25.40
2017-07-31T17:05:10.786Z,25.60
2017-07-31T17:07:38.377Z,25.60
2017-07-31T17:10:07.352Z,25.60
2017-07-31T17:12:35.357Z,25.60
2017-07-31T17:15:03.515Z,25.40
2017-07-31T17:17:31.839Z,25.30
2017-07-31T17:19:59.423Z,25.30
2017-07-31T17:22:27.011Z,25.40
2017-07-31T17:24:55.340Z,25.30
2017-07-31T17:27:22.922Z,25.30
2017-07-31T17:29:50.478Z,25.20
2017-07-31T17:32:18.056Z,25.10
2017-07-31T17:34:45.607Z,25.20
2017-07-31T17:37:13.156Z,25.20
2017-07-31T17:39:40.747Z,25.20
2017-07-31T17:42:09.074Z,25.00
2017-07-31T17:44:37.642Z,25.00
2017-07-31T17:47:05.279Z,24.90
2017-07-31T17:49:33.702Z,24.90
2017-07-31T17:52:02.205Z,24.90
2017-07-31T17:54:30.623Z,24.80
2017-07-31T17:57:00.490Z,24.50
2017-07-31T17:59:29.368Z,24.50
2017-07-31T18:01:57.843Z,24.40
2017-07-31T18:04:26.613Z,24.30
2017-07-31T18:06:55.309Z,24.20
2017-07-31T18:09:26.080Z,24.30
2017-07-31T18:11:55.272Z,24.40
2017-07-31T18:14:25.378Z,24.40
2017-07-31T18:16:53.692Z,24.40
2017-07-31T18:19:21.261Z,24.20
2017-07-31T18:21:50.819Z,23.90
2017-07-31T18:24:19.366Z,23.80
2017-07-31T18:26:47.371Z,23.70
2017-07-31T18:29:16.604Z,23.50
2017-07-31T18:31:45.715Z,23.40
2017-07-31T18:34:14.808Z,23.20
2017-07-31T18:36:44.470Z,23.20
2017-07-31T18:39:12.576Z,23.20
2017-07-31T18:41:40.426Z,23.20
2017-07-31T18:44:08.329Z,23.20
2017-07-31T18:46:37.393Z,22.90
2017-07-31T18:49:05.006Z,22.90
2017-07-31T18:51:34.446Z,22.70
2017-07-31T18:54:02.679Z,22.60
2017-07-31T18:56:30.796Z,22.60
2017-07-31T18:58:58.359Z,22.50
2017-07-31T19:01:25.921Z,22.40
2017-07-31T19:03:53.515Z,22.30
2017-07-31T19:06:21.841Z,22.10
2017-07-31T19:08:49.394Z,22.10
2017-07-31T19:11:16.982Z,22.00
2017-07-31T19:13:44.531Z,21.80
2017-07-31T19:16:12.125Z,21.70
2017-07-31T19:18:39.672Z,21.60
2017-07-31T19:21:07.221Z,21.50
2017-07-31T19:23:35.653Z,21.50
2017-07-31T19:26:03.201Z,21.30
2017-07-31T19:28:31.576Z,21.50
2017-07-31T19:30:59.889Z,21.80
2017-07-31T19:33:27.437Z,21.80
2017-07-31T19:35:55.040Z,21.60
2017-07-31T19:38:24.348Z,21.30
2017-07-31T19:40:51.942Z,21.20
2017-07-31T19:43:20.277Z,20.90
2017-07-31T19:45:47.839Z,20.90
2017-07-31T19:48:16.102Z,20.90
2017-07-31T19:50:43.666Z,21.00
2017-07-31T19:53:11.964Z,21.10
2017-07-31T19:55:39.556Z,21.10
2017-07-31T19:58:07.873Z,20.90
2017-07-31T20:00:35.705Z,20.90
2017-07-31T20:03:03.745Z,21.10
2017-07-31T20:05:32.223Z,21.30
2017-07-31T20:07:59.787Z,21.20
2017-07-31T20:10:27.483Z,21.10
2017-07-31T20:12:55.032Z,21.00
2017-07-31T20:15:23.390Z,20.90
2017-07-31T20:17:50.937Z,20.90
2017-07-31T20:20:18.486Z,20.90
2017-07-31T20:22:46.080Z,20.90
2017-07-31T20:25:14.393Z,20.90
2017-07-31T20:27:41.939Z,21.00
2017-07-31T20:30:09.854Z,21.00
2017-07-31T20:32:37.411Z,21.00
2017-07-31T20:35:05.064Z,20.90
2017-07-31T20:37:32.605Z,20.80
2017-07-31T20:40:00.176Z,20.60
2017-07-31T20:42:27.768Z,20.50
2017-07-31T20:44:55.330Z,20.50
2017-07-31T20:47:22.882Z,20.60
2017-07-31T20:49:50.467Z,20.70
2017-07-31T20:52:18.019Z,20.70
2017-07-31T20:54:45.613Z,20.50
2017-07-31T20:57:13.175Z,20.30
2017-07-31T20:59:40.738Z,20.30
2017-07-31T21:02:08.332Z,20.10
2017-07-31T21:04:35.894Z,20.10
2017-07-31T21:07:03.447Z,20.10
2017-07-31T21:09:31.066Z,20.10
2017-07-31T21:11:58.614Z,20.00
2017-07-31T21:14:26.942Z,20.10
2017-07-31T21:16:54.534Z,20.10
2017-07-31T21:19:22.082Z,20.30
2017-07-31T21:21:49.661Z,20.20
2017-07-31T21:24:17.988Z,20.20
2017-07-31T21:26:45.582Z,20.20
2017-07-31T21:29:13.147Z,20.20
2017-07-31T21:31:40.732Z,20.00
2017-07-31T21:34:08.314Z,19.90
2017-07-31T21:36:36.379Z,19.70
2017-07-31T21:39:03.981Z,19.60
2017-07-31T21:41:31.544Z,19.50
2017-07-31T21:43:59.105Z,19.70
2017-07-31T21:46:26.684Z,19.60
2017-07-31T21:48:54.247Z,19.60
2017-07-31T21:51:21.833Z,19.60
2017-07-31T21:53:51.654Z,19.70
2017-07-31T21:56:19.201Z,19.70
2017-07-31T21:58:47.557Z,19.80
2017-07-31T22:01:15.136Z,19.80
2017-07-31T22:03:43.450Z,19.90
2017-07-31T22:06:11.043Z,19.90
2017-07-31T22:08:39.598Z,19.90
2017-07-31T22:11:07.794Z,20.00
2017-07-31T22:13:35.382Z,20.00
2017-07-31T22:16:02.958Z,20.10
2017-07-31T22:18:31.274Z,20.10
2017-07-31T22:21:04.447Z,20.10
2017-07-31T22:23:31.994Z,20.10
2017-07-31T22:25:59.575Z,20.10
2017-07-31T22:28:27.134Z,20.00
2017-07-31T22:30:54.728Z,19.90
2017-07-31T22:33:22.294Z,19.60
2017-07-31T22:35:49.841Z,19.70
2017-07-31T22:38:17.432Z,19.70
2017-07-31T22:40:45.758Z,19.20
2017-07-31T22:43:13.352Z,19.20
2017-07-31T22:45:40.914Z,19.10
2017-07-31T22:48:08.462Z,19.00
2017-07-31T22:50:36.055Z,18.70
2017-07-31T22:53:03.618Z,18.60
2017-07-31T22:55:31.165Z,18.10
2017-07-31T22:57:58.758Z,18.00
2017-07-31T23:00:26.307Z,17.90
2017-07-31T23:02:53.870Z,17.90
2017-07-31T23:05:21.462Z,17.80
2017-07-31T23:07:49.024Z,17.60
2017-07-31T23:10:16.618Z,17.80
2017-07-31T23:12:44.165Z,17.90
2017-07-31T23:15:11.759Z,17.90
2017-07-31T23:17:39.321Z,17.70
2017-07-31T23:20:06.885Z,17.70
2017-07-31T23:22:35.243Z,17.80
2017-07-31T23:25:03.571Z,17.80
2017-07-31T23:27:31.137Z,17.80
2017-07-31T23:29:58.724Z,17.90
2017-07-31T23:32:26.274Z,17.90
2017-07-31T23:34:53.866Z,18.00
2017-07-31T23:37:22.194Z,17.80
2017-07-31T23:39:49.757Z,17.80
2017-07-31T23:42:17.349Z,17.80
2017-07-31T23:44:44.899Z,17.70
2017-07-31T23:47:12.460Z,17.30
2017-07-31T23:49:40.052Z,17.10
2017-07-31T23:52:07.601Z,17.20
2017-07-31T23:54:35.975Z,17.40
2017-07-31T23:57:04.302Z,17.50
2017-07-31T23:59:31.849Z,17.50
